Huvudsida
METAR-TAF:

METAR-TAF

Flygplatser :

Nouakchott, Mauretanien

Nouakchotts flygplats

latitud: 18-18-36N, longitud: 015-58-11W, höjd: 3 m

Aktuellt väderrapport

Denna rapport gjordes för 23 minuter sedan, klockan 04:30 UTC
Vind 11 kt från nordväst
Temperatur 17°C
Fuktighet 88%
Tryck 1007 hPa
Sikt 10 km eller mer
Inga moln under 1 500 m eller inga cumulonimbus

METAR: GQNO 230430Z 31011KT CAVOK 17/15 Q1007 NOSIG

Tid: 04:53 (04:53 UTC)

Väderprognos

Denna rapport gjordes för 5 timmar och 53 minuter sedan, klockan 23:00 UTC
Prognos gäller från 23 kl. 00 UTC till 24 kl. 06 UTC
Vind 12 kt från nord/nordväst
Sikt: 7000 m
Sannolikhet 30% :
Temporärt
från 23 kl. 02 UTC till 23 kl. 08 UTC
Sikt: 4000 m
Brutna moln på en höjd av 800 ft
fuktdis

TAF: GQNO 222300Z 2300/2406 34012KT 7000 NSC PROB30 TEMPO 2302/2308 4000 BR BKN008

Aktuella väderrapporter och prognoser från 4000 flygplatser (METAR- och TAF-rapporter).

De tillgängliga stationerna syns som gula och röda prickar på kartan.

För musen över prickarna för att se namnen på stationerna.

Klicka sedan för att få väderrapporter och prognoser.

För att ändra kartan: Klicka på de gröna knapparna med ett svart kors på för att zooma in; den gröna knappen med ett streck på för att zooma ut; eller på de gröna pilarna för angränsande kartor.


METAR-TAF: